sensor_id;sensor_type;location;lat;lon;timestamp;temperature;humidity
51853;DHT22;37894;53.172;6.598;2022-08-01T00:02:10;18.00;99.90
51853;DHT22;37894;53.172;6.598;2022-08-01T00:04:36;18.00;99.90
51853;DHT22;37894;53.172;6.598;2022-08-01T00:07:01;18.00;99.90
51853;DHT22;37894;53.172;6.598;2022-08-01T00:09:27;18.00;99.90
51853;DHT22;37894;53.172;6.598;2022-08-01T00:11:53;18.00;99.90
51853;DHT22;37894;53.172;6.598;2022-08-01T00:14:19;18.00;99.90
51853;DHT22;37894;53.172;6.598;2022-08-01T00:16:44;18.00;99.90
51853;DHT22;37894;53.172;6.598;2022-08-01T00:19:10;18.00;99.90
51853;DHT22;37894;53.172;6.598;2022-08-01T00:21:36;18.00;99.90
51853;DHT22;37894;53.172;6.598;2022-08-01T00:24:01;18.00;99.90
51853;DHT22;37894;53.172;6.598;2022-08-01T00:26:27;18.00;99.90
51853;DHT22;37894;53.172;6.598;2022-08-01T00:28:53;18.00;99.90
51853;DHT22;37894;53.172;6.598;2022-08-01T00:31:18;18.00;99.90
51853;DHT22;37894;53.172;6.598;2022-08-01T00:33:44;18.00;99.90
51853;DHT22;37894;53.172;6.598;2022-08-01T00:36:10;17.90;99.90
51853;DHT22;37894;53.172;6.598;2022-08-01T00:38:35;18.00;99.90
51853;DHT22;37894;53.172;6.598;2022-08-01T00:41:01;17.90;99.90
51853;DHT22;37894;53.172;6.598;2022-08-01T00:43:27;17.90;99.90
51853;DHT22;37894;53.172;6.598;2022-08-01T00:45:53;17.90;99.90
51853;DHT22;37894;53.172;6.598;2022-08-01T00:48:18;18.00;99.90
51853;DHT22;37894;53.172;6.598;2022-08-01T00:50:45;18.00;99.90
51853;DHT22;37894;53.172;6.598;2022-08-01T00:53:11;18.00;99.90
51853;DHT22;37894;53.172;6.598;2022-08-01T00:55:37;17.90;99.90
51853;DHT22;37894;53.172;6.598;2022-08-01T00:58:03;18.00;99.90
51853;DHT22;37894;53.172;6.598;2022-08-01T01:00:29;17.90;99.90
51853;DHT22;37894;53.172;6.598;2022-08-01T01:02:54;17.90;99.90
51853;DHT22;37894;53.172;6.598;2022-08-01T01:05:20;17.90;99.90
51853;DHT22;37894;53.172;6.598;2022-08-01T01:08:08;17.80;99.90
51853;DHT22;37894;53.172;6.598;2022-08-01T01:10:56;17.90;99.90
51853;DHT22;37894;53.172;6.598;2022-08-01T01:13:36;17.90;99.90
51853;DHT22;37894;53.172;6.598;2022-08-01T01:16:10;17.90;99.90
51853;DHT22;37894;53.172;6.598;2022-08-01T01:18:44;17.90;99.90
51853;DHT22;37894;53.172;6.598;2022-08-01T01:26:36;17.90;99.90
51853;DHT22;37894;53.172;6.598;2022-08-01T01:31:54;17.80;99.90
51853;DHT22;37894;53.172;6.598;2022-08-01T01:34:22;17.80;99.90
51853;DHT22;37894;53.172;6.598;2022-08-01T01:36:49;17.70;99.90
51853;DHT22;37894;53.172;6.598;2022-08-01T01:39:17;19.30;99.90
51853;DHT22;37894;53.172;6.598;2022-08-01T01:41:45;17.70;99.90
51853;DHT22;37894;53.172;6.598;2022-08-01T01:44:13;17.70;99.90
51853;DHT22;37894;53.172;6.598;2022-08-01T01:46:41;17.70;99.90
51853;DHT22;37894;53.172;6.598;2022-08-01T01:49:08;17.70;99.90
51853;DHT22;37894;53.172;6.598;2022-08-01T01:51:38;17.60;99.90
51853;DHT22;37894;53.172;6.598;2022-08-01T01:54:05;17.60;99.90
51853;DHT22;37894;53.172;6.598;2022-08-01T01:56:35;17.50;99.90
51853;DHT22;37894;53.172;6.598;2022-08-01T01:59:02;17.50;99.90
51853;DHT22;37894;53.172;6.598;2022-08-01T02:01:31;17.50;99.90
51853;DHT22;37894;53.172;6.598;2022-08-01T02:03:59;17.70;99.90
51853;DHT22;37894;53.172;6.598;2022-08-01T02:06:26;17.50;99.90
51853;DHT22;37894;53.172;6.598;2022-08-01T02:08:53;17.50;99.90
51853;DHT22;37894;53.172;6.598;2022-08-01T02:11:21;17.50;99.90
51853;DHT22;37894;53.172;6.598;2022-08-01T02:13:57;17.50;99.90
51853;DHT22;37894;53.172;6.598;2022-08-01T02:16:27;17.50;99.90
51853;DHT22;37894;53.172;6.598;2022-08-01T02:18:54;17.40;99.90
51853;DHT22;37894;53.172;6.598;2022-08-01T02:21:41;15.40;99.90
51853;DHT22;37894;53.172;6.598;2022-08-01T02:24:11;17.40;99.90
51853;DHT22;37894;53.172;6.598;2022-08-01T02:26:42;17.40;99.90
51853;DHT22;37894;53.172;6.598;2022-08-01T02:29:12;17.40;99.90
51853;DHT22;37894;53.172;6.598;2022-08-01T02:31:41;17.40;99.90
51853;DHT22;37894;53.172;6.598;2022-08-01T02:34:15;17.40;99.90
51853;DHT22;37894;53.172;6.598;2022-08-01T02:36:44;17.40;99.90
51853;DHT22;37894;53.172;6.598;2022-08-01T02:39:13;17.40;99.90
51853;DHT22;37894;53.172;6.598;2022-08-01T02:41:42;17.30;99.90
51853;DHT22;37894;53.172;6.598;2022-08-01T02:44:10;17.30;99.90
51853;DHT22;37894;53.172;6.598;2022-08-01T02:46:41;17.30;99.90
51853;DHT22;37894;53.172;6.598;2022-08-01T02:49:09;17.30;99.90
51853;DHT22;37894;53.172;6.598;2022-08-01T02:51:36;17.30;99.90
51853;DHT22;37894;53.172;6.598;2022-08-01T02:54:05;17.20;99.90
51853;DHT22;37894;53.172;6.598;2022-08-01T02:56:32;17.30;99.90
51853;DHT22;37894;53.172;6.598;2022-08-01T02:59:07;17.30;99.90
51853;DHT22;37894;53.172;6.598;2022-08-01T03:01:36;17.30;99.90
51853;DHT22;37894;53.172;6.598;2022-08-01T03:04:03;17.20;99.90
51853;DHT22;37894;53.172;6.598;2022-08-01T03:06:31;17.20;99.90
51853;DHT22;37894;53.172;6.598;2022-08-01T03:08:59;17.30;99.90
51853;DHT22;37894;53.172;6.598;2022-08-01T03:11:26;17.20;99.90
51853;DHT22;37894;53.172;6.598;2022-08-01T03:13:54;17.20;99.90
51853;DHT22;37894;53.172;6.598;2022-08-01T03:16:22;17.10;99.90
51853;DHT22;37894;53.172;6.598;2022-08-01T03:18:51;17.10;99.90
51853;DHT22;37894;53.172;6.598;2022-08-01T03:21:19;17.10;99.90
51853;DHT22;37894;53.172;6.598;2022-08-01T03:23:46;17.00;99.90
51853;DHT22;37894;53.172;6.598;2022-08-01T03:26:13;17.00;99.90
51853;DHT22;37894;53.172;6.598;2022-08-01T03:28:40;17.00;99.90
51853;DHT22;37894;53.172;6.598;2022-08-01T03:31:07;16.90;99.90
51853;DHT22;37894;53.172;6.598;2022-08-01T03:33:32;17.00;99.90
51853;DHT22;37894;53.172;6.598;2022-08-01T03:36:00;16.90;99.90
51853;DHT22;37894;53.172;6.598;2022-08-01T03:38:30;16.90;99.90
51853;DHT22;37894;53.172;6.598;2022-08-01T03:41:05;16.90;99.90
51853;DHT22;37894;53.172;6.598;2022-08-01T03:43:40;16.80;99.90
51853;DHT22;37894;53.172;6.598;2022-08-01T03:46:11;17.10;99.90
51853;DHT22;37894;53.172;6.598;2022-08-01T03:48:44;17.10;99.90
51853;DHT22;37894;53.172;6.598;2022-08-01T03:51:12;16.80;99.90
51853;DHT22;37894;53.172;6.598;2022-08-01T03:53:40;16.90;99.90
51853;DHT22;37894;53.172;6.598;2022-08-01T03:56:08;16.70;99.90
51853;DHT22;37894;53.172;6.598;2022-08-01T03:58:38;16.70;99.90
51853;DHT22;37894;53.172;6.598;2022-08-01T04:01:06;16.70;99.90
51853;DHT22;37894;53.172;6.598;2022-08-01T04:03:32;16.70;99.90
51853;DHT22;37894;53.172;6.598;2022-08-01T04:05:58;16.70;99.90
51853;DHT22;37894;53.172;6.598;2022-08-01T04:08:34;16.70;99.90
51853;DHT22;37894;53.172;6.598;2022-08-01T04:11:00;16.70;99.90
51853;DHT22;37894;53.172;6.598;2022-08-01T04:13:26;16.70;99.90
51853;DHT22;37894;53.172;6.598;2022-08-01T04:15:51;16.70;99.90
51853;DHT22;37894;53.172;6.598;2022-08-01T04:18:17;16.70;99.90
51853;DHT22;37894;53.172;6.598;2022-08-01T04:20:43;16.70;99.90
51853;DHT22;37894;53.172;6.598;2022-08-01T04:23:09;16.60;99.90
51853;DHT22;37894;53.172;6.598;2022-08-01T04:25:37;16.70;99.90
51853;DHT22;37894;53.172;6.598;2022-08-01T04:28:06;16.70;99.90
51853;DHT22;37894;53.172;6.598;2022-08-01T04:30:38;16.70;99.90
51853;DHT22;37894;53.172;6.598;2022-08-01T04:33:06;16.70;99.90
51853;DHT22;37894;53.172;6.598;2022-08-01T04:35:34;16.70;99.90
51853;DHT22;37894;53.172;6.598;2022-08-01T04:38:01;16.70;99.90
51853;DHT22;37894;53.172;6.598;2022-08-01T04:40:28;16.60;99.90
51853;DHT22;37894;53.172;6.598;2022-08-01T04:42:54;16.60;99.90
51853;DHT22;37894;53.172;6.598;2022-08-01T04:45:22;16.70;99.90
51853;DHT22;37894;53.172;6.598;2022-08-01T04:47:49;16.60;99.90
51853;DHT22;37894;53.172;6.598;2022-08-01T04:50:15;16.60;99.90
51853;DHT22;37894;53.172;6.598;2022-08-01T04:52:41;16.60;99.90
51853;DHT22;37894;53.172;6.598;2022-08-01T04:55:08;16.60;99.90
51853;DHT22;37894;53.172;6.598;2022-08-01T04:57:39;16.50;99.90
51853;DHT22;37894;53.172;6.598;2022-08-01T05:00:07;16.50;99.90
51853;DHT22;37894;53.172;6.598;2022-08-01T05:02:33;16.50;99.90
51853;DHT22;37894;53.172;6.598;2022-08-01T05:04:59;16.50;99.90
51853;DHT22;37894;53.172;6.598;2022-08-01T05:07:25;16.50;99.90
51853;DHT22;37894;53.172;6.598;2022-08-01T05:09:50;16.50;99.90
51853;DHT22;37894;53.172;6.598;2022-08-01T05:12:16;16.60;99.90
51853;DHT22;37894;53.172;6.598;2022-08-01T05:14:42;16.50;99.90
51853;DHT22;37894;53.172;6.598;2022-08-01T05:17:09;16.50;99.90
51853;DHT22;37894;53.172;6.598;2022-08-01T05:19:36;16.50;99.90
51853;DHT22;37894;53.172;6.598;2022-08-01T05:22:04;17.00;99.90
51853;DHT22;37894;53.172;6.598;2022-08-01T05:24:31;16.60;99.90
51853;DHT22;37894;53.172;6.598;2022-08-01T05:26:57;16.60;99.90
51853;DHT22;37894;53.172;6.598;2022-08-01T05:29:24;16.60;99.90
51853;DHT22;37894;53.172;6.598;2022-08-01T05:31:50;16.60;99.90
51853;DHT22;37894;53.172;6.598;2022-08-01T05:34:15;16.60;99.90
51853;DHT22;37894;53.172;6.598;2022-08-01T05:36:41;16.60;99.90
51853;DHT22;37894;53.172;6.598;2022-08-01T05:39:07;16.60;99.90
51853;DHT22;37894;53.172;6.598;2022-08-01T05:41:33;16.60;99.90
51853;DHT22;37894;53.172;6.598;2022-08-01T05:43:59;16.60;99.90
51853;DHT22;37894;53.172;6.598;2022-08-01T05:46:25;16.70;99.90
51853;DHT22;37894;53.172;6.598;2022-08-01T05:48:50;16.70;99.90
51853;DHT22;37894;53.172;6.598;2022-08-01T05:51:16;16.70;99.90
51853;DHT22;37894;53.172;6.598;2022-08-01T05:53:42;16.60;99.90
51853;DHT22;37894;53.172;6.598;2022-08-01T05:56:08;16.70;99.90
51853;DHT22;37894;53.172;6.598;2022-08-01T05:58:33;16.70;99.90
51853;DHT22;37894;53.172;6.598;2022-08-01T06:00:59;16.70;99.90
51853;DHT22;37894;53.172;6.598;2022-08-01T06:03:25;16.70;99.90
51853;DHT22;37894;53.172;6.598;2022-08-01T06:05:53;16.70;99.90
51853;DHT22;37894;53.172;6.598;2022-08-01T06:08:20;16.70;99.90
51853;DHT22;37894;53.172;6.598;2022-08-01T06:10:45;16.70;99.90
51853;DHT22;37894;53.172;6.598;2022-08-01T06:13:11;16.70;99.90
51853;DHT22;37894;53.172;6.598;2022-08-01T06:15:37;16.70;99.90
51853;DHT22;37894;53.172;6.598;2022-08-01T06:18:03;16.80;99.90
51853;DHT22;37894;53.172;6.598;2022-08-01T06:20:30;16.80;99.90
51853;DHT22;37894;53.172;6.598;2022-08-01T06:22:55;16.80;99.90
51853;DHT22;37894;53.172;6.598;2022-08-01T06:25:21;16.70;99.90
51853;DHT22;37894;53.172;6.598;2022-08-01T06:27:48;16.70;99.90
51853;DHT22;37894;53.172;6.598;2022-08-01T06:30:14;16.70;99.90
51853;DHT22;37894;53.172;6.598;2022-08-01T06:32:40;16.80;99.90
51853;DHT22;37894;53.172;6.598;2022-08-01T06:35:06;16.70;99.90
51853;DHT22;37894;53.172;6.598;2022-08-01T06:37:32;16.70;99.90
51853;DHT22;37894;53.172;6.598;2022-08-01T06:40:06;16.70;99.90
51853;DHT22;37894;53.172;6.598;2022-08-01T06:42:32;16.60;99.90
51853;DHT22;37894;53.172;6.598;2022-08-01T06:45:04;16.60;99.90
51853;DHT22;37894;53.172;6.598;2022-08-01T06:47:30;16.70;99.90
51853;DHT22;37894;53.172;6.598;2022-08-01T06:49:56;16.70;99.90
51853;DHT22;37894;53.172;6.598;2022-08-01T06:52:22;16.70;99.90
51853;DHT22;37894;53.172;6.598;2022-08-01T06:54:47;16.70;99.90
51853;DHT22;37894;53.172;6.598;2022-08-01T06:57:13;16.70;99.90
51853;DHT22;37894;53.172;6.598;2022-08-01T06:59:39;16.70;99.90
51853;DHT22;37894;53.172;6.598;2022-08-01T07:02:05;16.80;99.90
51853;DHT22;37894;53.172;6.598;2022-08-01T07:04:31;16.80;99.90
51853;DHT22;37894;53.172;6.598;2022-08-01T07:06:57;17.00;99.90
51853;DHT22;37894;53.172;6.598;2022-08-01T07:09:24;17.30;99.90
51853;DHT22;37894;53.172;6.598;2022-08-01T07:11:52;16.90;99.90
51853;DHT22;37894;53.172;6.598;2022-08-01T07:14:20;16.90;99.90
51853;DHT22;37894;53.172;6.598;2022-08-01T07:16:46;17.00;99.90
51853;DHT22;37894;53.172;6.598;2022-08-01T07:19:12;17.10;99.90
51853;DHT22;37894;53.172;6.598;2022-08-01T07:21:39;17.10;99.90
51853;DHT22;37894;53.172;6.598;2022-08-01T07:24:06;17.20;99.90
51853;DHT22;37894;53.172;6.598;2022-08-01T07:26:32;17.30;99.90
51853;DHT22;37894;53.172;6.598;2022-08-01T07:28:58;17.40;99.90
51853;DHT22;37894;53.172;6.598;2022-08-01T07:31:24;17.50;99.90
51853;DHT22;37894;53.172;6.598;2022-08-01T07:33:50;17.60;99.90
51853;DHT22;37894;53.172;6.598;2022-08-01T07:36:17;17.70;99.90
51853;DHT22;37894;53.172;6.598;2022-08-01T07:38:43;17.80;99.90
51853;DHT22;37894;53.172;6.598;2022-08-01T07:41:09;17.80;99.90
51853;DHT22;37894;53.172;6.598;2022-08-01T07:43:35;17.90;99.90
51853;DHT22;37894;53.172;6.598;2022-08-01T07:46:04;17.90;99.90
51853;DHT22;37894;53.172;6.598;2022-08-01T07:48:30;18.00;99.90
51853;DHT22;37894;53.172;6.598;2022-08-01T07:50:57;18.10;99.90
51853;DHT22;37894;53.172;6.598;2022-08-01T07:53:26;18.20;99.90
51853;DHT22;37894;53.172;6.598;2022-08-01T07:55:52;18.30;99.90
51853;DHT22;37894;53.172;6.598;2022-08-01T07:58:18;18.30;99.90
51853;DHT22;37894;53.172;6.598;2022-08-01T08:00:44;18.40;99.90
51853;DHT22;37894;53.172;6.598;2022-08-01T08:03:10;18.50;99.90
51853;DHT22;37894;53.172;6.598;2022-08-01T08:05:39;18.60;99.90
51853;DHT22;37894;53.172;6.598;2022-08-01T08:08:06;18.60;99.90
51853;DHT22;37894;53.172;6.598;2022-08-01T08:10:33;18.70;99.90
51853;DHT22;37894;53.172;6.598;2022-08-01T08:13:00;18.80;99.90
51853;DHT22;37894;53.172;6.598;2022-08-01T08:15:27;19.10;99.90
51853;DHT22;37894;53.172;6.598;2022-08-01T08:17:54;19.20;99.90
51853;DHT22;37894;53.172;6.598;2022-08-01T08:20:20;19.30;99.90
51853;DHT22;37894;53.172;6.598;2022-08-01T08:22:55;19.50;99.90
51853;DHT22;37894;53.172;6.598;2022-08-01T08:25:22;19.60;99.90
51853;DHT22;37894;53.172;6.598;2022-08-01T08:27:48;19.60;99.90
51853;DHT22;37894;53.172;6.598;2022-08-01T08:30:14;20.00;99.90
51853;DHT22;37894;53.172;6.598;2022-08-01T08:32:40;19.70;99.90
51853;DHT22;37894;53.172;6.598;2022-08-01T08:35:07;19.70;99.90
51853;DHT22;37894;53.172;6.598;2022-08-01T08:37:37;19.60;99.90
51853;DHT22;37894;53.172;6.598;2022-08-01T08:40:05;19.70;99.90
51853;DHT22;37894;53.172;6.598;2022-08-01T08:42:32;19.90;99.90
51853;DHT22;37894;53.172;6.598;2022-08-01T08:44:58;20.00;99.90
51853;DHT22;37894;53.172;6.598;2022-08-01T08:47:25;20.00;99.90
51853;DHT22;37894;53.172;6.598;2022-08-01T08:49:54;20.10;99.90
51853;DHT22;37894;53.172;6.598;2022-08-01T08:52:22;20.00;99.90
51853;DHT22;37894;53.172;6.598;2022-08-01T08:54:49;20.10;99.90
51853;DHT22;37894;53.172;6.598;2022-08-01T08:57:16;20.10;99.90
51853;DHT22;37894;53.172;6.598;2022-08-01T08:59:44;20.30;99.90
51853;DHT22;37894;53.172;6.598;2022-08-01T09:02:13;20.50;99.90
51853;DHT22;37894;53.172;6.598;2022-08-01T09:04:39;20.50;99.90
51853;DHT22;37894;53.172;6.598;2022-08-01T09:07:06;20.60;99.90
51853;DHT22;37894;53.172;6.598;2022-08-01T09:09:33;20.80;99.90
51853;DHT22;37894;53.172;6.598;2022-08-01T09:11:59;20.70;99.90
51853;DHT22;37894;53.172;6.598;2022-08-01T09:14:26;20.80;99.90
51853;DHT22;37894;53.172;6.598;2022-08-01T09:17:06;20.90;99.90
51853;DHT22;37894;53.172;6.598;2022-08-01T09:19:44;21.10;99.90
51853;DHT22;37894;53.172;6.598;2022-08-01T09:22:17;21.20;99.90
51853;DHT22;37894;53.172;6.598;2022-08-01T09:24:57;21.30;99.90
51853;DHT22;37894;53.172;6.598;2022-08-01T09:27:24;21.20;99.90
51853;DHT22;37894;53.172;6.598;2022-08-01T09:29:52;21.10;99.90
51853;DHT22;37894;53.172;6.598;2022-08-01T09:32:19;21.10;99.90
51853;DHT22;37894;53.172;6.598;2022-08-01T09:34:45;21.20;99.90
51853;DHT22;37894;53.172;6.598;2022-08-01T09:37:14;21.30;99.90
51853;DHT22;37894;53.172;6.598;2022-08-01T09:39:44;21.40;99.90
51853;DHT22;37894;53.172;6.598;2022-08-01T09:42:25;21.40;99.90
51853;DHT22;37894;53.172;6.598;2022-08-01T09:44:53;21.50;99.90
51853;DHT22;37894;53.172;6.598;2022-08-01T09:47:20;21.40;99.90
51853;DHT22;37894;53.172;6.598;2022-08-01T09:49:54;21.50;99.90
51853;DHT22;37894;53.172;6.598;2022-08-01T09:52:22;21.60;99.90
51853;DHT22;37894;53.172;6.598;2022-08-01T09:55:05;21.60;99.90
51853;DHT22;37894;53.172;6.598;2022-08-01T09:57:31;21.60;99.90
51853;DHT22;37894;53.172;6.598;2022-08-01T09:59:59;21.60;99.90
51853;DHT22;37894;53.172;6.598;2022-08-01T10:05:03;21.70;99.90
51853;DHT22;37894;53.172;6.598;2022-08-01T10:07:29;21.70;99.90
51853;DHT22;37894;53.172;6.598;2022-08-01T10:09:55;21.60;99.90
51853;DHT22;37894;53.172;6.598;2022-08-01T10:12:22;21.60;99.90
51853;DHT22;37894;53.172;6.598;2022-08-01T10:14:51;21.70;99.90
51853;DHT22;37894;53.172;6.598;2022-08-01T10:17:20;21.70;99.90
51853;DHT22;37894;53.172;6.598;2022-08-01T10:19:50;21.70;99.90
51853;DHT22;37894;53.172;6.598;2022-08-01T10:22:23;21.70;99.90
51853;DHT22;37894;53.172;6.598;2022-08-01T10:24:54;21.90;99.90
51853;DHT22;37894;53.172;6.598;2022-08-01T10:27:21;22.00;99.90
51853;DHT22;37894;53.172;6.598;2022-08-01T10:29:55;22.00;99.90
51853;DHT22;37894;53.172;6.598;2022-08-01T10:32:23;22.10;99.90
51853;DHT22;37894;53.172;6.598;2022-08-01T10:34:52;22.10;99.90
51853;DHT22;37894;53.172;6.598;2022-08-01T10:37:18;22.20;99.90
51853;DHT22;37894;53.172;6.598;2022-08-01T10:39:44;22.20;99.90
51853;DHT22;37894;53.172;6.598;2022-08-01T10:42:11;22.20;99.90
51853;DHT22;37894;53.172;6.598;2022-08-01T10:44:38;22.20;99.90
51853;DHT22;37894;53.172;6.598;2022-08-01T10:47:09;22.30;99.90
51853;DHT22;37894;53.172;6.598;2022-08-01T10:49:41;22.20;99.90
51853;DHT22;37894;53.172;6.598;2022-08-01T10:52:14;22.20;99.90
51853;DHT22;37894;53.172;6.598;2022-08-01T10:54:40;22.30;99.90
51853;DHT22;37894;53.172;6.598;2022-08-01T10:57:07;22.40;99.90
51853;DHT22;37894;53.172;6.598;2022-08-01T10:59:33;22.50;99.90
51853;DHT22;37894;53.172;6.598;2022-08-01T11:02:05;22.40;99.90
51853;DHT22;37894;53.172;6.598;2022-08-01T11:04:55;22.40;99.90
51853;DHT22;37894;53.172;6.598;2022-08-01T11:10:14;22.20;99.90
51853;DHT22;37894;53.172;6.598;2022-08-01T11:12:42;22.20;99.90
51853;DHT22;37894;53.172;6.598;2022-08-01T11:17:35;22.40;99.90
51853;DHT22;37894;53.172;6.598;2022-08-01T11:20:12;22.50;99.90
51853;DHT22;37894;53.172;6.598;2022-08-01T11:25:23;22.80;99.90
51853;DHT22;37894;53.172;6.598;2022-08-01T11:38:40;22.80;99.90
51853;DHT22;37894;53.172;6.598;2022-08-01T11:41:14;22.90;99.90
51853;DHT22;37894;53.172;6.598;2022-08-01T11:44:12;23.10;99.90
51853;DHT22;37894;53.172;6.598;2022-08-01T11:47:05;23.20;99.90
51853;DHT22;37894;53.172;6.598;2022-08-01T11:49:45;23.40;99.90
51853;DHT22;37894;53.172;6.598;2022-08-01T11:52:24;23.50;99.90
51853;DHT22;37894;53.172;6.598;2022-08-01T11:55:17;23.60;99.00
51853;DHT22;37894;53.172;6.598;2022-08-01T11:57:44;23.80;95.30
51853;DHT22;37894;53.172;6.598;2022-08-01T12:00:13;23.70;98.00
51853;DHT22;37894;53.172;6.598;2022-08-01T12:02:39;23.80;97.30
51853;DHT22;37894;53.172;6.598;2022-08-01T12:05:08;23.70;96.40
51853;DHT22;37894;53.172;6.598;2022-08-01T12:07:36;23.70;94.40
51853;DHT22;37894;53.172;6.598;2022-08-01T12:10:10;23.70;96.10
51853;DHT22;37894;53.172;6.598;2022-08-01T12:12:46;23.80;94.60
51853;DHT22;37894;53.172;6.598;2022-08-01T12:15:12;23.90;91.20
51853;DHT22;37894;53.172;6.598;2022-08-01T12:17:41;24.00;93.10
51853;DHT22;37894;53.172;6.598;2022-08-01T12:20:09;24.10;93.30
51853;DHT22;37894;53.172;6.598;2022-08-01T12:22:36;24.10;92.00
51853;DHT22;37894;53.172;6.598;2022-08-01T12:25:09;24.10;92.30
51853;DHT22;37894;53.172;6.598;2022-08-01T12:27:37;24.20;93.10
51853;DHT22;37894;53.172;6.598;2022-08-01T12:30:09;24.30;91.40
51853;DHT22;37894;53.172;6.598;2022-08-01T12:32:38;24.30;87.10
51853;DHT22;37894;53.172;6.598;2022-08-01T12:35:10;24.30;84.10
51853;DHT22;37894;53.172;6.598;2022-08-01T12:37:44;24.30;86.20
51853;DHT22;37894;53.172;6.598;2022-08-01T12:42:41;24.50;90.60
51853;DHT22;37894;53.172;6.598;2022-08-01T12:45:08;24.70;87.10
51853;DHT22;37894;53.172;6.598;2022-08-01T12:47:36;24.70;83.40
51853;DHT22;37894;53.172;6.598;2022-08-01T12:50:06;24.90;80.50
51853;DHT22;37894;53.172;6.598;2022-08-01T12:52:33;24.90;79.70
51853;DHT22;37894;53.172;6.598;2022-08-01T12:55:23;25.10;80.30
51853;DHT22;37894;53.172;6.598;2022-08-01T12:58:11;25.10;81.00
51853;DHT22;37894;53.172;6.598;2022-08-01T13:00:39;25.20;75.80
51853;DHT22;37894;53.172;6.598;2022-08-01T13:03:11;25.20;78.40
51853;DHT22;37894;53.172;6.598;2022-08-01T13:05:57;25.30;74.20
51853;DHT22;37894;53.172;6.598;2022-08-01T13:11:05;25.40;76.20
51853;DHT22;37894;53.172;6.598;2022-08-01T13:13:42;25.60;71.90
51853;DHT22;37894;53.172;6.598;2022-08-01T13:16:09;25.60;70.50
51853;DHT22;37894;53.172;6.598;2022-08-01T13:18:36;25.60;73.60
51853;DHT22;37894;53.172;6.598;2022-08-01T13:21:12;25.60;73.90
51853;DHT22;37894;53.172;6.598;2022-08-01T13:23:40;25.70;71.40
51853;DHT22;37894;53.172;6.598;2022-08-01T13:26:07;25.90;71.80
51853;DHT22;37894;53.172;6.598;2022-08-01T13:28:33;25.90;70.90
51853;DHT22;37894;53.172;6.598;2022-08-01T13:31:05;25.70;69.00
51853;DHT22;37894;53.172;6.598;2022-08-01T13:33:46;25.70;69.70
51853;DHT22;37894;53.172;6.598;2022-08-01T13:36:14;25.80;69.30
51853;DHT22;37894;53.172;6.598;2022-08-01T13:38:41;25.90;70.90
51853;DHT22;37894;53.172;6.598;2022-08-01T13:41:27;26.00;69.40
51853;DHT22;37894;53.172;6.598;2022-08-01T13:43:53;26.10;68.90
51853;DHT22;37894;53.172;6.598;2022-08-01T13:46:19;26.40;67.60
51853;DHT22;37894;53.172;6.598;2022-08-01T13:48:45;26.70;68.20
51853;DHT22;37894;53.172;6.598;2022-08-01T13:51:11;26.90;67.00
51853;DHT22;37894;53.172;6.598;2022-08-01T13:53:37;26.80;64.50
51853;DHT22;37894;53.172;6.598;2022-08-01T13:56:04;26.80;65.50
51853;DHT22;37894;53.172;6.598;2022-08-01T13:58:30;27.10;65.50
51853;DHT22;37894;53.172;6.598;2022-08-01T14:00:56;27.40;66.10
51853;DHT22;37894;53.172;6.598;2022-08-01T14:03:22;27.70;64.00
51853;DHT22;37894;53.172;6.598;2022-08-01T14:05:48;27.90;62.60
51853;DHT22;37894;53.172;6.598;2022-08-01T14:08:15;28.10;61.60
51853;DHT22;37894;53.172;6.598;2022-08-01T14:10:41;28.00;61.40
51853;DHT22;37894;53.172;6.598;2022-08-01T14:13:07;27.80;61.20
51853;DHT22;37894;53.172;6.598;2022-08-01T14:15:33;27.40;61.80
51853;DHT22;37894;53.172;6.598;2022-08-01T14:17:59;27.20;63.10
51853;DHT22;37894;53.172;6.598;2022-08-01T14:20:25;26.90;63.20
51853;DHT22;37894;53.172;6.598;2022-08-01T14:22:52;26.70;63.50
51853;DHT22;37894;53.172;6.598;2022-08-01T14:25:18;26.30;63.60
51853;DHT22;37894;53.172;6.598;2022-08-01T14:27:47;26.00;62.60
51853;DHT22;37894;53.172;6.598;2022-08-01T14:30:13;25.70;62.70
51853;DHT22;37894;53.172;6.598;2022-08-01T14:32:40;25.40;63.70
51853;DHT22;37894;53.172;6.598;2022-08-01T14:35:09;25.00;63.60
51853;DHT22;37894;53.172;6.598;2022-08-01T14:37:35;24.70;65.00
51853;DHT22;37894;53.172;6.598;2022-08-01T14:40:01;24.40;66.40
51853;DHT22;37894;53.172;6.598;2022-08-01T14:42:34;24.20;67.10
51853;DHT22;37894;53.172;6.598;2022-08-01T14:45:01;24.10;67.20
51853;DHT22;37894;53.172;6.598;2022-08-01T14:47:27;24.00;67.00
51853;DHT22;37894;53.172;6.598;2022-08-01T14:49:52;24.00;67.60
51853;DHT22;37894;53.172;6.598;2022-08-01T14:52:18;23.90;68.50
51853;DHT22;37894;53.172;6.598;2022-08-01T14:54:44;23.80;69.80
51853;DHT22;37894;53.172;6.598;2022-08-01T14:57:10;23.60;69.20
51853;DHT22;37894;53.172;6.598;2022-08-01T14:59:36;23.40;70.00
51853;DHT22;37894;53.172;6.598;2022-08-01T15:02:02;23.40;71.20
51853;DHT22;37894;53.172;6.598;2022-08-01T15:04:27;23.30;71.80
51853;DHT22;37894;53.172;6.598;2022-08-01T15:06:53;23.30;72.00
51853;DHT22;37894;53.172;6.598;2022-08-01T15:09:20;23.20;72.80
51853;DHT22;37894;53.172;6.598;2022-08-01T15:11:45;23.20;73.30
51853;DHT22;37894;53.172;6.598;2022-08-01T15:14:12;23.20;73.50
51853;DHT22;37894;53.172;6.598;2022-08-01T15:16:56;23.20;73.00
51853;DHT22;37894;53.172;6.598;2022-08-01T15:19:22;22.90;73.10
51853;DHT22;37894;53.172;6.598;2022-08-01T15:21:47;22.80;74.90
51853;DHT22;37894;53.172;6.598;2022-08-01T15:24:13;22.50;75.00
51853;DHT22;37894;53.172;6.598;2022-08-01T15:26:39;22.40;75.60
51853;DHT22;37894;53.172;6.598;2022-08-01T15:29:04;22.20;77.30
51853;DHT22;37894;53.172;6.598;2022-08-01T15:31:30;22.20;77.60
51853;DHT22;37894;53.172;6.598;2022-08-01T15:33:56;22.10;79.10
51853;DHT22;37894;53.172;6.598;2022-08-01T15:36:22;22.00;79.60
51853;DHT22;37894;53.172;6.598;2022-08-01T15:38:48;21.90;80.00
51853;DHT22;37894;53.172;6.598;2022-08-01T15:41:13;21.80;81.50
51853;DHT22;37894;53.172;6.598;2022-08-01T15:43:39;21.70;82.20
51853;DHT22;37894;53.172;6.598;2022-08-01T15:46:05;21.60;82.50
51853;DHT22;37894;53.172;6.598;2022-08-01T15:48:30;21.60;82.00
51853;DHT22;37894;53.172;6.598;2022-08-01T15:50:56;21.50;81.40
51853;DHT22;37894;53.172;6.598;2022-08-01T15:53:22;21.50;82.00
51853;DHT22;37894;53.172;6.598;2022-08-01T15:55:47;21.40;82.20
51853;DHT22;37894;53.172;6.598;2022-08-01T15:58:13;21.30;82.20
51853;DHT22;37894;53.172;6.598;2022-08-01T16:00:39;21.20;83.50
51853;DHT22;37894;53.172;6.598;2022-08-01T16:03:05;21.10;84.10
51853;DHT22;37894;53.172;6.598;2022-08-01T16:05:31;21.10;86.20
51853;DHT22;37894;53.172;6.598;2022-08-01T16:07:57;21.00;86.00
51853;DHT22;37894;53.172;6.598;2022-08-01T16:10:23;20.90;86.80
51853;DHT22;37894;53.172;6.598;2022-08-01T16:12:48;20.90;89.40